Time;durP1;ratioP1;P1;durP2;ratioP2;P2;SDS_P1;SDS_P2;PMS_P1;PMS_P2;Temp;Humidity;BMP_temperature;BMP_pressure;BME280_temperature;BME280_humidity;BME280_pressure;Samples;Min_cycle;Max_cycle;Signal;HPM_P1;HPM_P2
2022/04/09 00:01:30;;;;;;;22.70;11.40;;;;;;;10.13;66.77;97793.06;1713812;83;21043;-79
2022/04/09 00:03:57;;;;;;;24.77;12.65;;;;;;;10.15;67.03;97796.44;1713610;83;20972;-78
2022/04/09 00:06:23;;;;;;;21.02;12.37;;;;;;;10.17;67.01;97792.48;1712232;83;21034;-79
2022/04/09 00:08:50;;;;;;;27.37;12.80;;;;;;;10.21;66.91;97798.39;1713490;83;20980;-80
2022/04/09 00:11:17;;;;;;;23.10;12.40;;;;;;;10.16;67.05;97799.41;1715876;83;21519;-79
2022/04/09 00:13:43;;;;;;;25.02;11.85;;;;;;;10.13;67.50;97799.56;1715923;82;21019;-79
2022/04/09 00:16:10;;;;;;;22.90;11.97;;;;;;;10.13;67.47;97792.23;1713720;83;21011;-79
2022/04/09 00:18:37;;;;;;;23.42;11.93;;;;;;;10.13;66.68;97790.47;1710705;83;20956;-79
2022/04/09 00:21:04;;;;;;;22.32;11.85;;;;;;;10.13;66.59;97792.23;1716305;83;20976;-78
2022/04/09 00:23:31;;;;;;;26.23;12.03;;;;;;;10.09;67.25;97783.73;1705972;83;21063;-79
2022/04/09 00:25:57;;;;;;;20.62;10.55;;;;;;;10.07;66.96;97782.95;1712716;83;21610;-79
2022/04/09 00:28:24;;;;;;;21.48;11.08;;;;;;;9.99;67.73;97772.06;1715745;83;21119;-79
2022/04/09 00:30:51;;;;;;;24.65;11.97;;;;;;;9.96;67.34;97768.29;1721397;81;21594;-79
2022/04/09 00:33:18;;;;;;;15.60;8.90;;;;;;;9.93;68.25;97759.36;1719023;81;21080;-79
2022/04/09 00:35:45;;;;;;;16.05;8.68;;;;;;;9.90;68.18;97769.86;1722539;81;20976;-79
2022/04/09 00:38:11;;;;;;;18.32;8.70;;;;;;;9.91;67.00;97749.49;1736731;82;21330;-80
2022/04/09 00:40:38;;;;;;;16.90;8.68;;;;;;;9.91;67.45;97748.20;1698722;83;21094;-79
2022/04/09 00:43:05;;;;;;;15.75;8.73;;;;;;;9.96;68.48;97756.61;1720888;81;21521;-79
2022/04/09 00:45:32;;;;;;;17.40;8.55;;;;;;;9.98;68.50;97759.14;1719625;83;21048;-80
2022/04/09 00:47:59;;;;;;;18.30;8.40;;;;;;;10.03;67.79;97742.45;1721153;82;20990;-79
2022/04/09 00:50:26;;;;;;;19.25;9.68;;;;;;;10.04;67.96;97748.48;1719674;81;21088;-80
2022/04/09 00:52:57;;;;;;;16.93;9.05;;;;;;;10.07;68.02;97741.41;1721839;82;21563;-79
2022/04/09 00:58:16;;;;;;;18.70;10.50;;;;;;;10.05;68.31;97732.01;1721709;82;21067;-79
2022/04/09 01:00:44;;;;;;;14.45;8.35;;;;;;;10.04;67.31;97728.55;1717835;81;21013;-82
2022/04/09 01:03:16;;;;;;;15.88;9.43;;;;;;;10.03;68.39;97721.69;1721757;83;21019;-79
2022/04/09 01:05:42;;;;;;;17.98;9.30;;;;;;;10.01;67.68;97713.13;1718022;81;21068;-78
2022/04/09 01:08:09;;;;;;;13.15;8.35;;;;;;;10.00;67.13;97715.31;1718824;81;20988;-80
2022/04/09 01:10:37;;;;;;;18.87;9.55;;;;;;;9.98;68.44;97708.05;1718976;82;21012;-80
2022/04/09 01:13:05;;;;;;;13.18;8.58;;;;;;;9.95;68.10;97711.64;1721799;82;21011;-79
2022/04/09 01:15:32;;;;;;;15.63;8.50;;;;;;;9.89;69.12;97704.59;1693551;82;21066;-79
2022/04/09 01:18:03;;;;;;;16.10;8.70;;;;;;;9.88;69.44;97700.30;1722024;82;20996;-79
2022/04/09 01:20:31;;;;;;;15.55;9.05;;;;;;;9.85;69.27;97696.09;1720324;82;21056;-78
2022/04/09 01:22:58;;;;;;;18.32;9.18;;;;;;;9.85;68.80;97696.55;1722006;82;20991;-79
2022/04/09 01:25:24;;;;;;;18.65;8.98;;;;;;;9.85;68.88;97696.55;1720649;82;21120;-80
2022/04/09 01:27:53;;;;;;;18.23;8.60;;;;;;;9.81;70.03;97697.14;1721094;83;21012;-79
2022/04/09 01:30:22;;;;;;;19.05;9.33;;;;;;;9.83;69.08;97690.55;1717105;82;21081;-78
2022/04/09 01:32:48;;;;;;;14.98;8.68;;;;;;;9.78;70.46;97687.34;1721320;82;21468;-80
2022/04/09 01:35:15;;;;;;;14.58;8.88;;;;;;;9.75;70.26;97683.97;1722892;82;21016;-80
2022/04/09 01:37:42;;;;;;;16.85;9.63;;;;;;;9.71;70.10;97687.62;1717662;82;20968;-79
2022/04/09 01:40:11;;;;;;;14.23;8.95;;;;;;;9.67;69.73;97689.95;1718475;82;21008;-79
2022/04/09 01:42:39;;;;;;;19.07;9.28;;;;;;;9.61;70.19;97691.53;1714839;82;21098;-79
2022/04/09 01:45:08;;;;;;;16.40;9.50;;;;;;;9.55;70.91;97693.09;1692237;83;21562;-78
2022/04/09 01:47:40;;;;;;;16.95;9.80;;;;;;;9.49;71.67;97689.01;1717671;82;20981;-80
2022/04/09 01:50:05;;;;;;;18.10;9.45;;;;;;;9.46;70.13;97690.89;1700489;82;21043;-78
2022/04/09 01:52:31;;;;;;;17.17;9.95;;;;;;;9.44;69.51;97683.63;1715185;83;21065;-78
2022/04/09 01:54:58;;;;;;;19.32;10.45;;;;;;;9.38;70.19;97681.30;1718461;82;21030;-79
2022/04/09 01:57:25;;;;;;;22.60;9.80;;;;;;;9.32;71.22;97685.82;1688571;83;21668;-79
2022/04/09 01:59:52;;;;;;;19.32;9.10;;;;;;;9.25;71.71;97685.72;1692278;82;21051;-79
2022/04/09 02:02:19;;;;;;;17.82;10.20;;;;;;;9.19;72.30;97679.49;1716262;83;20998;-79
2022/04/09 02:04:46;;;;;;;18.35;10.43;;;;;;;9.18;71.19;97675.20;1718546;82;21053;-79
2022/04/09 02:07:13;;;;;;;17.12;9.63;;;;;;;9.14;72.63;97677.07;1717057;82;21030;-79
2022/04/09 02:09:41;;;;;;;18.40;10.85;;;;;;;9.15;72.14;97673.59;1709982;82;21012;-79
2022/04/09 02:12:07;;;;;;;22.35;11.33;;;;;;;9.18;72.11;97674.36;1712091;82;21087;-79
2022/04/09 02:14:34;;;;;;;21.73;10.80;;;;;;;9.21;71.53;97667.73;1716924;82;21053;-79
2022/04/09 02:17:01;;;;;;;17.75;10.90;;;;;;;9.22;71.92;97666.84;1718678;82;20977;-78
2022/04/09 02:19:28;;;;;;;19.00;11.05;;;;;;;9.23;72.37;97661.59;1718548;83;21049;-79
2022/04/09 02:21:55;;;;;;;20.43;11.15;;;;;;;9.24;71.62;97652.89;1718744;83;21507;-78
2022/04/09 02:24:21;;;;;;;21.17;10.85;;;;;;;9.27;71.19;97646.30;1717329;82;21035;-79
2022/04/09 02:26:49;;;;;;;21.55;11.60;;;;;;;9.29;71.06;97639.72;1718319;82;20988;-79
2022/04/09 02:29:15;;;;;;;25.50;11.65;;;;;;;9.30;71.33;97646.61;1721408;81;21011;-79
2022/04/09 02:31:42;;;;;;;22.85;12.70;;;;;;;9.28;71.46;97639.34;1728682;82;21073;-78
2022/04/09 02:34:09;;;;;;;25.00;12.65;;;;;;;9.26;71.28;97631.63;1729157;82;21044;-80
2022/04/09 02:36:37;;;;;;;20.97;12.07;;;;;;;9.24;71.41;97626.12;1728679;81;21032;-79
2022/04/09 02:39:04;;;;;;;24.70;12.63;;;;;;;9.21;71.13;97612.85;1727753;81;21575;-79
2022/04/09 02:41:32;;;;;;;22.67;12.20;;;;;;;9.19;70.90;97615.97;1700755;83;21059;-80
2022/04/09 02:43:59;;;;;;;25.62;14.03;;;;;;;9.16;71.40;97629.87;1698030;83;21068;-80
2022/04/09 02:46:26;;;;;;;24.77;13.13;;;;;;;9.13;70.53;97642.99;1729242;81;20971;-79
2022/04/09 02:48:53;;;;;;;22.85;10.65;;;;;;;9.10;70.78;97635.33;1728958;81;21495;-79
2022/04/09 02:51:20;;;;;;;21.05;11.53;;;;;;;9.07;71.92;97633.31;1729130;83;21004;-80
2022/04/09 02:53:47;;;;;;;19.92;10.95;;;;;;;9.04;71.89;97635.59;1729649;81;20996;-79
2022/04/09 02:56:14;;;;;;;20.20;11.57;;;;;;;9.04;72.71;97638.19;1733370;81;20985;-79
2022/04/09 02:58:41;;;;;;;19.32;11.80;;;;;;;9.04;72.76;97627.81;1729369;81;21083;-78
2022/04/09 03:01:10;;;;;;;20.12;11.93;;;;;;;9.09;71.45;97628.91;1728164;81;21780;-78
2022/04/09 03:03:37;;;;;;;21.45;11.57;;;;;;;9.11;72.40;97639.63;1728919;81;21507;-79
2022/04/09 03:06:04;;;;;;;23.60;12.30;;;;;;;9.19;72.30;97639.30;1729646;81;21036;-78
2022/04/09 03:08:31;;;;;;;24.25;12.37;;;;;;;9.24;71.83;97641.22;1729463;81;21029;-79
2022/04/09 03:10:57;;;;;;;25.80;12.78;;;;;;;9.30;71.90;97637.06;1729526;83;21037;-80
2022/04/09 03:13:24;;;;;;;31.97;14.33;;;;;;;9.38;71.85;97634.14;1729335;82;21576;-79
2022/04/09 03:15:50;;;;;;;29.98;15.05;;;;;;;9.47;72.16;97634.19;1729497;81;20962;-80
2022/04/09 03:18:18;;;;;;;27.55;14.07;;;;;;;9.51;72.03;97636.60;1729334;81;21052;-80
2022/04/09 03:20:45;;;;;;;30.77;14.65;;;;;;;9.57;71.54;97634.19;1728697;81;21461;-79
2022/04/09 03:23:12;;;;;;;27.10;15.40;;;;;;;9.60;71.45;97633.20;1729234;83;21054;-78
2022/04/09 03:25:50;;;;;;;35.35;16.82;;;;;;;9.58;71.50;97634.56;1727053;81;21038;-79
2022/04/09 03:28:18;;;;;;;30.50;17.62;;;;;;;9.58;71.01;97634.56;1725606;83;21041;-79
2022/04/09 03:30:45;;;;;;;28.47;17.20;;;;;;;9.58;71.00;97639.75;1722223;83;21041;-79
2022/04/09 03:33:13;;;;;;;29.82;16.15;;;;;;;9.51;70.21;97623.63;1719603;82;21559;-79
2022/04/09 03:35:40;;;;;;;32.15;15.72;;;;;;;9.55;70.55;97627.77;1722029;82;21056;-79
2022/04/09 03:38:11;;;;;;;26.40;14.35;;;;;;;9.51;70.64;97632.71;1720863;82;21063;-79
2022/04/09 03:40:40;;;;;;;26.10;15.23;;;;;;;9.49;70.17;97623.29;1712793;82;21094;-79
2022/04/09 03:43:07;;;;;;;23.40;14.05;;;;;;;9.46;69.89;97628.16;1710240;82;21037;-79
2022/04/09 03:45:34;;;;;;;27.82;14.87;;;;;;;9.43;70.61;97619.23;1721280;82;21576;-79
2022/04/09 03:48:02;;;;;;;27.02;13.80;;;;;;;9.42;69.43;97627.91;1720224;82;21025;-79
2022/04/09 03:50:30;;;;;;;20.80;11.75;;;;;;;9.40;70.73;97621.95;1719980;82;21584;-79
2022/04/09 03:52:58;;;;;;;19.55;11.83;;;;;;;9.38;70.84;97625.53;1720072;83;21052;-77
2022/04/09 03:55:26;;;;;;;25.57;12.20;;;;;;;9.34;70.54;97635.19;1708193;82;21622;-79
2022/04/09 03:57:53;;;;;;;18.25;11.05;;;;;;;9.37;70.77;97640.27;1719799;82;21639;-79
2022/04/09 04:00:21;;;;;;;22.60;11.63;;;;;;;9.36;71.52;97647.17;1719935;82;21045;-79
2022/04/09 04:02:49;;;;;;;24.57;13.25;;;;;;;9.39;71.58;97655.73;1721074;83;21025;-77
2022/04/09 04:05:17;;;;;;;26.50;13.48;;;;;;;9.42;72.02;97656.91;1721166;82;21025;-78
2022/04/09 04:07:46;;;;;;;21.02;12.35;;;;;;;9.45;71.87;97651.14;1701449;83;21005;-78
2022/04/09 04:10:13;;;;;;;21.57;11.65;;;;;;;9.49;71.53;97647.93;1720015;82;20982;-79
2022/04/09 04:12:43;;;;;;;26.12;12.47;;;;;;;9.54;70.58;97644.23;1721618;83;21525;-81
2022/04/09 04:15:13;;;;;;;27.87;13.03;;;;;;;9.56;70.95;97657.14;1719738;82;21020;-79
2022/04/09 04:17:44;;;;;;;23.90;12.50;;;;;;;9.61;70.20;97646.12;1721368;82;21013;-79
2022/04/09 04:20:14;;;;;;;20.23;12.10;;;;;;;9.62;70.47;97645.66;1716672;82;21054;-79
2022/04/09 04:22:42;;;;;;;20.20;11.20;;;;;;;9.62;70.35;97648.25;1722346;82;21467;-79
2022/04/09 04:25:09;;;;;;;30.27;13.38;;;;;;;9.64;70.43;97651.16;1719723;82;21020;-79
2022/04/09 04:27:46;;;;;;;20.95;11.90;;;;;;;9.68;71.25;97650.11;1712864;83;21468;-78
2022/04/09 04:30:14;;;;;;;22.35;10.65;;;;;;;9.74;70.95;97658.91;1714741;82;21575;-79
2022/04/09 04:32:42;;;;;;;21.25;10.78;;;;;;;9.72;71.43;97649.06;1732032;81;21079;-78
2022/04/09 04:35:12;;;;;;;20.25;10.82;;;;;;;9.73;72.14;97648.16;1732128;83;21001;-79
2022/04/09 04:37:42;;;;;;;19.37;10.88;;;;;;;9.72;72.39;97650.36;1700445;81;21007;-78
2022/04/09 04:40:10;;;;;;;17.55;10.23;;;;;;;9.81;71.42;97643.06;1733408;81;21034;-78
2022/04/09 04:42:37;;;;;;;20.70;11.20;;;;;;;9.81;71.23;97643.06;1732291;81;21064;-76
2022/04/09 04:45:06;;;;;;;18.52;10.23;;;;;;;9.81;72.09;97645.66;1743079;80;21583;-80
2022/04/09 04:47:44;;;;;;;18.02;10.53;;;;;;;9.83;71.08;97640.81;1726075;81;21088;-79
2022/04/09 04:50:12;;;;;;;20.82;11.40;;;;;;;9.84;72.00;97639.05;1731717;81;21047;-79
2022/04/09 04:52:39;;;;;;;21.23;11.35;;;;;;;9.89;71.23;97643.59;1728918;81;21525;-78
2022/04/09 04:55:09;;;;;;;23.25;11.03;;;;;;;9.90;70.48;97635.70;1732094;81;20996;-79
2022/04/09 04:57:52;;;;;;;20.40;11.65;;;;;;;9.90;71.06;97647.38;1730035;81;21139;-80
2022/04/09 05:00:24;;;;;;;15.15;9.10;;;;;;;9.95;71.31;97648.03;1730599;81;20976;-78
2022/04/09 05:02:53;;;;;;;15.43;8.40;;;;;;;10.02;71.47;97644.69;1740207;81;21400;-77
2022/04/09 05:05:20;;;;;;;19.00;8.58;;;;;;;10.10;71.31;97648.23;1730704;81;20986;-79
2022/04/09 05:07:49;;;;;;;16.45;8.88;;;;;;;10.16;71.24;97645.34;1730138;83;21036;-79
2022/04/09 05:10:21;;;;;;;13.83;8.18;;;;;;;10.29;71.16;97630.05;1696112;81;21010;-79
2022/04/09 05:12:49;;;;;;;16.12;8.70;;;;;;;10.38;70.85;97633.98;1729916;82;21063;-79
2022/04/09 05:15:17;;;;;;;17.23;8.48;;;;;;;10.48;70.61;97633.92;1730403;81;21487;-79
2022/04/09 05:17:45;;;;;;;14.83;7.95;;;;;;;10.64;69.86;97629.66;1699687;83;21459;-80
2022/04/09 05:20:15;;;;;;;14.85;8.38;;;;;;;10.72;69.56;97630.59;1731601;81;21098;-80
2022/04/09 05:22:46;;;;;;;13.32;8.28;;;;;;;10.85;69.31;97619.15;1714966;81;21056;-79
2022/04/09 05:25:19;;;;;;;15.68;8.20;;;;;;;10.93;69.03;97626.10;1731536;81;20990;-80
2022/04/09 05:27:50;;;;;;;19.37;8.18;;;;;;;11.01;69.03;97617.92;1730889;81;21023;-79
2022/04/09 05:30:25;;;;;;;18.15;8.83;;;;;;;11.12;68.97;97618.20;1715349;83;21560;-80
2022/04/09 05:32:52;;;;;;;18.82;9.50;;;;;;;11.25;68.67;97611.92;1720178;83;21115;-80
2022/04/09 05:35:19;;;;;;;16.42;9.13;;;;;;;11.34;68.45;97616.20;1718340;81;21080;-81
2022/04/09 05:37:48;;;;;;;17.87;9.18;;;;;;;11.45;68.52;97622.13;1720890;82;21009;-79
2022/04/09 05:40:18;;;;;;;13.60;8.20;;;;;;;11.53;68.68;97621.27;1713954;82;21556;-79
2022/04/09 05:42:46;;;;;;;14.13;8.35;;;;;;;11.63;68.18;97612.52;1721173;82;21452;-79
2022/04/09 05:45:13;;;;;;;16.77;8.05;;;;;;;11.68;68.30;97607.09;1719279;82;21017;-79
2022/04/09 05:47:45;;;;;;;19.77;7.78;;;;;;;11.74;68.71;97614.56;1721721;82;21024;-79
2022/04/09 05:50:15;;;;;;;19.52;8.33;;;;;;;11.83;68.71;97615.83;1718655;82;21439;-79
2022/04/09 05:52:43;;;;;;;12.75;7.87;;;;;;;11.94;68.77;97618.27;1721742;82;20999;-80
2022/04/09 05:55:11;;;;;;;15.88;8.68;;;;;;;12.04;68.67;97621.21;1718853;81;21582;-80
2022/04/09 05:57:39;;;;;;;20.27;9.10;;;;;;;12.13;68.58;97618.08;1712805;82;21563;-79
2022/04/09 06:00:09;;;;;;;16.93;9.58;;;;;;;12.21;68.11;97613.76;1718818;82;21542;-79
2022/04/09 06:02:43;;;;;;;17.00;9.08;;;;;;;12.30;68.41;97616.34;1721839;82;21526;-78
2022/04/09 06:05:12;;;;;;;15.80;9.03;;;;;;;12.40;68.19;97620.58;1717399;82;21033;-79
2022/04/09 06:07:41;;;;;;;16.57;9.33;;;;;;;12.45;68.32;97620.67;1721795;81;21035;-78
2022/04/09 06:10:10;;;;;;;16.87;8.88;;;;;;;12.52;68.27;97623.31;1722862;81;21047;-81
2022/04/09 06:12:37;;;;;;;18.87;7.90;;;;;;;12.53;68.06;97613.28;1729670;81;21011;-79
2022/04/09 06:15:07;;;;;;;15.18;8.38;;;;;;;12.57;67.81;97623.52;1719097;82;21448;-79
2022/04/09 06:17:37;;;;;;;15.50;8.48;;;;;;;12.59;67.48;97636.00;1721333;82;20988;-79
2022/04/09 06:20:06;;;;;;;15.88;9.05;;;;;;;12.61;67.25;97630.23;1720599;82;21110;-79
2022/04/09 06:22:33;;;;;;;16.02;9.53;;;;;;;12.53;67.43;97631.53;1719959;81;21499;-79
2022/04/09 06:25:01;;;;;;;18.70;9.70;;;;;;;12.51;67.08;97640.34;1721479;82;21075;-79
2022/04/09 06:27:28;;;;;;;19.20;10.63;;;;;;;12.50;67.02;97630.38;1722589;82;21023;-79
2022/04/09 06:29:55;;;;;;;16.20;10.28;;;;;;;12.48;67.46;97629.63;1720961;82;21027;-80
2022/04/09 06:32:22;;;;;;;19.02;9.48;;;;;;;12.46;66.97;97638.00;1716930;82;21043;-82
2022/04/09 06:34:48;;;;;;;22.27;10.98;;;;;;;12.46;67.59;97639.78;1717614;82;21594;-79
2022/04/09 06:37:17;;;;;;;17.02;9.55;;;;;;;12.46;67.47;97630.19;1715135;82;21009;-80
2022/04/09 06:39:43;;;;;;;14.58;9.83;;;;;;;12.47;67.05;97634.92;1713493;82;21095;-80
2022/04/09 06:42:10;;;;;;;16.10;9.70;;;;;;;12.47;67.34;97624.50;1715923;82;21041;-79
2022/04/09 06:44:39;;;;;;;16.40;8.95;;;;;;;12.52;67.54;97627.23;1712482;83;21023;-79
2022/04/09 06:47:08;;;;;;;16.20;9.65;;;;;;;12.60;67.42;97625.50;1715146;83;20998;-79
2022/04/09 06:49:40;;;;;;;23.50;12.00;;;;;;;12.69;67.53;97624.12;1717798;82;21051;-80
2022/04/09 06:52:11;;;;;;;25.55;13.18;;;;;;;12.78;67.94;97620.16;1714686;82;21008;-79
2022/04/09 06:54:57;;;;;;;;;;;;;;;12.89;67.81;97608.19;1720436;82;21008;-80
2022/04/09 06:57:24;;;;;;;30.02;21.62;;;;;;;13.03;67.66;97615.65;1715947;82;20435;-79
2022/04/09 06:59:50;;;;;;;39.48;27.85;;;;;;;13.13;67.24;97611.59;1685298;84;21586;-79
2022/04/09 07:02:18;;;;;;;35.00;22.40;;;;;;;13.29;67.27;97612.80;1696512;83;21017;-79
2022/04/09 07:04:45;;;;;;;61.83;29.05;;;;;;;13.45;67.37;97608.39;1717387;82;21037;-78
2022/04/09 07:07:11;;;;;;;61.75;30.08;;;;;;;13.65;67.08;97608.48;1717662;82;21093;-79
2022/04/09 07:09:38;;;;;;;168.70;64.42;;;;;;;13.84;66.96;97608.64;1716469;82;21013;-78
2022/04/09 07:12:06;;;;;;;126.82;54.53;;;;;;;14.02;66.68;97600.13;1718205;82;21028;-79
2022/04/09 07:14:33;;;;;;;42.62;21.05;;;;;;;14.19;66.40;97603.83;1718174;82;20979;-80
2022/04/09 07:17:03;;;;;;;31.17;16.45;;;;;;;14.39;66.20;97591.26;1718175;82;21049;-79
2022/04/09 07:19:29;;;;;;;28.20;12.33;;;;;;;14.56;65.82;97600.16;1716558;82;21031;-79
2022/04/09 07:21:55;;;;;;;19.90;9.08;;;;;;;14.76;65.56;97600.64;1718271;82;21472;-80
2022/04/09 07:24:22;;;;;;;15.93;6.67;;;;;;;14.96;65.10;97601.94;1714649;82;21057;-79
2022/04/09 07:26:48;;;;;;;12.55;5.42;;;;;;;15.16;64.48;97595.36;1717244;82;21098;-81
2022/04/09 07:29:16;;;;;;;10.60;5.87;;;;;;;15.31;64.14;97585.16;1717142;82;20984;-80
2022/04/09 07:31:42;;;;;;;11.97;6.67;;;;;;;15.38;63.74;97595.59;1719809;82;21080;-79
2022/04/09 07:34:10;;;;;;;12.20;5.08;;;;;;;15.49;63.58;97590.92;1720673;82;21049;-79
2022/04/09 07:36:38;;;;;;;11.73;4.62;;;;;;;15.61;63.36;97596.61;1721936;82;21029;-79
2022/04/09 07:39:06;;;;;;;12.37;4.78;;;;;;;15.69;62.93;97596.91;1719825;82;21010;-79
2022/04/09 07:41:33;;;;;;;12.58;3.77;;;;;;;15.75;62.02;97594.84;1718108;83;21048;-81
2022/04/09 07:43:59;;;;;;;10.53;3.58;;;;;;;15.84;61.76;97591.11;1721604;82;21025;-79
2022/04/09 07:46:26;;;;;;;12.25;3.40;;;;;;;15.95;61.09;97590.34;1717879;82;21105;-79
2022/04/09 07:48:53;;;;;;;6.45;3.00;;;;;;;16.06;61.66;97593.53;1721299;83;21048;-78
2022/04/09 07:51:19;;;;;;;7.42;3.17;;;;;;;16.10;60.51;97589.26;1719300;82;21005;-78
2022/04/09 07:53:47;;;;;;;9.55;3.10;;;;;;;16.17;60.30;97587.50;1722116;82;21080;-79
2022/04/09 07:56:13;;;;;;;8.73;3.17;;;;;;;16.25;59.99;97586.02;1718244;82;20967;-79
2022/04/09 07:58:44;;;;;;;7.20;2.98;;;;;;;16.36;59.93;97584.41;1721371;82;21595;-79
2022/04/09 08:01:10;;;;;;;8.73;3.15;;;;;;;16.45;59.70;97580.64;1720237;82;21549;-79
2022/04/09 08:03:37;;;;;;;4.65;2.45;;;;;;;16.53;59.06;97581.84;1736457;82;21002;-80
2022/04/09 08:06:05;;;;;;;5.45;2.65;;;;;;;16.61;58.63;97576.86;1719932;82;22100;-78
2022/04/09 08:08:33;;;;;;;9.18;2.65;;;;;;;16.77;58.20;97571.31;1721961;83;20993;-79
2022/04/09 08:11:00;;;;;;;7.67;2.90;;;;;;;16.87;58.22;97571.02;1720587;82;21056;-81
2022/04/09 08:13:27;;;;;;;6.72;2.83;;;;;;;17.09;56.70;97578.14;1720118;82;21481;-80
2022/04/09 08:15:54;;;;;;;3.92;2.40;;;;;;;17.36;57.43;97579.59;1701649;83;21305;-79
2022/04/09 08:18:20;;;;;;;7.25;3.20;;;;;;;17.55;54.19;97577.23;1717854;83;21084;-78
2022/04/09 08:20:47;;;;;;;7.78;3.00;;;;;;;17.76;54.38;97575.18;1721714;82;20978;-79
2022/04/09 08:23:14;;;;;;;15.78;4.42;;;;;;;17.97;54.95;97569.58;1720412;83;21029;-80
2022/04/09 08:25:40;;;;;;;12.75;5.28;;;;;;;18.21;54.57;97562.00;1721073;82;21073;-78
2022/04/09 08:28:07;;;;;;;9.18;3.30;;;;;;;18.44;52.89;97562.74;1719679;83;21009;-80
2022/04/09 08:30:34;;;;;;;8.70;3.58;;;;;;;18.64;52.94;97558.47;1722165;82;22090;-79
2022/04/09 08:33:05;;;;;;;8.25;2.90;;;;;;;18.71;52.37;97549.61;1717737;82;21031;-81
2022/04/09 08:35:29;;;;;;;5.30;2.58;;;;;;;18.80;51.43;97556.30;1716220;83;21024;-78
2022/04/09 08:37:57;;;;;;;5.67;2.30;;;;;;;18.82;50.82;97560.09;1720253;82;21045;-79
2022/04/09 08:40:26;;;;;;;8.75;2.65;;;;;;;18.80;51.41;97558.92;1720590;82;21017;-80
2022/04/09 08:42:54;;;;;;;5.85;2.60;;;;;;;18.76;50.88;97556.16;1720522;82;21049;-78
2022/04/09 08:45:20;;;;;;;5.55;2.55;;;;;;;18.79;50.01;97555.06;1721129;82;21032;-80
2022/04/09 08:47:48;;;;;;;6.92;2.67;;;;;;;18.80;50.32;97551.03;1721474;82;21004;-79
2022/04/09 08:50:15;;;;;;;6.55;2.65;;;;;;;18.87;50.90;97561.38;1718194;82;21005;-79
2022/04/09 08:52:44;;;;;;;7.17;2.35;;;;;;;18.93;50.63;97561.36;1721635;82;21017;-79
2022/04/09 08:55:13;;;;;;;7.78;2.37;;;;;;;18.91;48.69;97561.14;1718779;83;21013;-81
2022/04/09 08:57:41;;;;;;;4.47;2.20;;;;;;;19.02;49.49;97549.20;1721450;82;21087;-81
2022/04/09 09:00:13;;;;;;;11.53;2.42;;;;;;;19.16;50.35;97555.48;1717372;83;21081;-79
2022/04/09 09:02:55;;;;;;;9.80;2.30;;;;;;;19.26;48.57;97556.86;1723639;83;21026;-81
2022/04/09 09:05:45;;;;;;;7.17;2.42;;;;;;;19.42;49.32;97547.16;1719799;82;20966;-80
2022/04/09 09:08:12;;;;;;;5.50;2.70;;;;;;;19.46;49.20;97541.97;1719735;82;21052;-79
2022/04/09 09:10:41;;;;;;;6.85;2.42;;;;;;;19.50;49.02;97539.42;1702360;83;21473;-78
2022/04/09 09:13:11;;;;;;;7.47;3.00;;;;;;;19.55;49.34;97545.11;1722481;82;21015;-80
2022/04/09 09:15:52;;;;;;;6.53;2.58;;;;;;;19.41;48.28;97546.30;1720196;83;21013;-79
2022/04/09 09:18:27;;;;;;;12.43;3.30;;;;;;;19.34;49.19;97539.91;1722101;82;21612;-79
2022/04/09 09:20:58;;;;;;;7.28;3.20;;;;;;;19.17;48.65;97543.14;1720026;83;21092;-78
2022/04/09 09:23:33;;;;;;;12.18;2.92;;;;;;;19.02;49.00;97545.25;1719293;82;21001;-79
2022/04/09 09:26:03;;;;;;;9.75;3.33;;;;;;;18.98;48.90;97543.39;1719199;82;21072;-82
2022/04/09 09:28:32;;;;;;;6.53;2.77;;;;;;;18.87;49.74;97544.27;1722372;82;21591;-79
2022/04/09 09:31:00;;;;;;;7.65;2.83;;;;;;;18.81;49.90;97538.20;1719254;83;21035;-80
2022/04/09 09:33:28;;;;;;;9.08;3.00;;;;;;;18.76;49.31;97539.05;1721314;82;21070;-80
2022/04/09 09:36:00;;;;;;;6.90;2.35;;;;;;;18.75;49.40;97538.69;1720759;82;21074;-80
2022/04/09 09:38:31;;;;;;;7.08;1.95;;;;;;;18.79;48.61;97528.74;1723831;82;21011;-80
2022/04/09 09:40:58;;;;;;;9.83;2.12;;;;;;;18.84;47.12;97531.84;1721021;82;21040;-79
2022/04/09 09:43:26;;;;;;;6.58;1.90;;;;;;;18.76;46.54;97532.48;1719956;81;21027;-79
2022/04/09 09:45:54;;;;;;;12.90;1.75;;;;;;;18.76;45.68;97527.21;1719388;81;21581;-79
2022/04/09 09:48:30;;;;;;;7.62;2.05;;;;;;;18.77;45.45;97530.67;1720355;81;21522;-79
2022/04/09 09:50:57;;;;;;;8.00;2.27;;;;;;;18.75;45.23;97537.38;1691831;81;21022;-79
2022/04/09 09:53:31;;;;;;;6.65;2.15;;;;;;;18.79;46.05;97526.11;1721785;82;21582;-78
2022/04/09 09:56:03;;;;;;;8.70;2.30;;;;;;;18.83;45.22;97525.75;1718811;83;21624;-79
2022/04/09 09:58:32;;;;;;;7.08;2.08;;;;;;;18.90;45.55;97518.64;1724744;82;21122;-81
2022/04/09 10:00:59;;;;;;;9.38;2.20;;;;;;;18.92;45.21;97517.58;1720986;82;21407;-81
2022/04/09 10:03:27;;;;;;;8.25;2.00;;;;;;;18.95;44.45;97521.73;1713701;82;21060;-80
2022/04/09 10:05:53;;;;;;;4.97;1.82;;;;;;;18.99;44.79;97516.56;1721646;81;22233;-78
2022/04/09 10:08:21;;;;;;;4.42;1.90;;;;;;;18.98;44.50;97517.51;1720920;83;21094;-79
2022/04/09 10:10:51;;;;;;;6.95;2.25;;;;;;;18.95;43.52;97517.30;1701671;82;21023;-80
2022/04/09 10:13:24;;;;;;;11.90;2.02;;;;;;;18.93;44.43;97511.33;1720491;81;21068;-80
2022/04/09 10:15:53;;;;;;;5.03;1.80;;;;;;;18.80;43.57;97510.22;1721449;82;21007;-79
2022/04/09 10:18:22;;;;;;;4.10;1.82;;;;;;;18.78;43.98;97520.47;1718745;82;21022;-78
2022/04/09 10:20:54;;;;;;;6.03;2.00;;;;;;;18.73;44.39;97524.82;1720932;82;20983;-78
2022/04/09 10:23:22;;;;;;;5.00;2.02;;;;;;;18.62;46.42;97535.39;1718395;81;21088;-80
2022/04/09 10:25:53;;;;;;;7.47;2.15;;;;;;;18.45;48.42;97536.31;1721404;82;21035;-79
2022/04/09 10:28:35;;;;;;;5.87;2.17;;;;;;;18.14;49.96;97531.39;1719807;82;21031;-79
2022/04/09 10:31:02;;;;;;;7.08;2.20;;;;;;;17.97;51.12;97534.08;1719338;81;21047;-79
2022/04/09 10:33:33;;;;;;;7.80;2.22;;;;;;;17.80;50.92;97537.18;1718182;83;21023;-78
2022/04/09 10:36:04;;;;;;;7.40;3.12;;;;;;;17.76;51.24;97546.27;1720635;81;21009;-82
2022/04/09 10:38:31;;;;;;;8.48;2.60;;;;;;;17.81;51.66;97533.61;1720182;82;21505;-79
2022/04/09 10:41:12;;;;;;;6.58;2.50;;;;;;;17.94;52.71;97534.80;1721163;82;21044;-79
2022/04/09 10:43:40;;;;;;;7.17;2.60;;;;;;;18.07;52.87;97540.75;1720379;82;21095;-78
2022/04/09 10:46:19;;;;;;;7.12;2.60;;;;;;;18.23;52.47;97539.03;1720775;83;21012;-78
2022/04/09 10:48:44;;;;;;;8.53;2.98;;;;;;;18.36;51.96;97537.05;1719892;82;21048;-78
2022/04/09 10:51:13;;;;;;;10.28;2.62;;;;;;;18.47;51.60;97529.13;1719674;82;21054;-78
2022/04/09 10:53:44;;;;;;;10.30;3.17;;;;;;;18.60;51.08;97533.38;1721347;82;21536;-79
2022/04/09 10:56:27;;;;;;;10.25;3.30;;;;;;;18.78;50.15;97523.11;1716042;81;21056;-79
2022/04/09 10:59:16;;;;;;;9.83;3.20;;;;;;;18.91;49.99;97521.64;1701267;83;21563;-78
2022/04/09 11:01:50;;;;;;;6.37;2.58;;;;;;;19.02;49.23;97522.41;1725574;81;21002;-80
2022/04/09 11:04:34;;;;;;;5.42;2.37;;;;;;;19.15;48.02;97531.90;1720794;83;21016;-81
2022/04/09 11:07:22;;;;;;;6.72;2.37;;;;;;;19.26;47.89;97526.07;1715617;82;21024;-79
2022/04/09 11:09:55;;;;;;;7.08;2.10;;;;;;;19.37;47.17;97526.45;1736736;81;20994;-78
2022/04/09 11:12:26;;;;;;;;;;;;;;;19.47;45.64;97527.81;1721731;81;21031;-78
2022/04/09 11:14:59;;;;;;;4.35;2.05;;;;;;;19.56;44.15;97516.98;1719584;82;20165;-78
2022/04/09 11:17:38;;;;;;;5.55;1.80;;;;;;;19.67;42.73;97522.13;1721521;82;21015;-80
2022/04/09 11:20:11;;;;;;;9.70;2.00;;;;;;;19.79;42.73;97522.39;1721104;82;21091;-79
2022/04/09 11:22:42;;;;;;;6.40;1.80;;;;;;;19.94;43.25;97521.55;1718148;81;21524;-78
2022/04/09 11:25:22;;;;;;;9.65;3.15;;;;;;;20.11;42.14;97520.52;1717237;83;21120;-79
2022/04/09 11:27:50;;;;;;;9.08;2.10;;;;;;;20.18;41.20;97529.56;1714814;83;21033;-78
2022/04/09 11:30:17;;;;;;;5.08;1.70;;;;;;;20.34;40.30;97525.07;1721749;83;21017;-78
2022/04/09 11:32:48;;;;;;;8.38;1.57;;;;;;;20.29;40.21;97535.19;1714466;83;21095;-78
2022/04/09 11:35:17;;;;;;;4.70;1.85;;;;;;;20.47;40.60;97532.20;1705752;83;21488;-80
2022/04/09 11:37:48;;;;;;;4.22;1.82;;;;;;;20.44;40.68;97525.90;1706803;83;21042;-78
2022/04/09 11:40:18;;;;;;;5.55;1.75;;;;;;;20.38;39.56;97527.28;1705468;83;21055;-79